sensor_id;sensor_type;location;lat;lon;timestamp;pressure;altitude;pressure_sealevel;temperature;humidity
61524;BME280;47393;38.758;-9.164;2022-11-02T00:02:14;101348.22;;;11.33;100.00
61524;BME280;47393;38.758;-9.164;2022-11-02T00:04:15;101342.44;;;11.15;100.00
61524;BME280;47393;38.758;-9.164;2022-11-02T00:06:35;101348.44;;;11.17;100.00
61524;BME280;47393;38.758;-9.164;2022-11-02T00:08:36;101345.59;;;11.20;100.00
61524;BME280;47393;38.758;-9.164;2022-11-02T00:10:40;101348.44;;;11.17;100.00
61524;BME280;47393;38.758;-9.164;2022-11-02T00:12:56;101336.09;;;11.17;100.00
61524;BME280;47393;38.758;-9.164;2022-11-02T00:15:17;101329.91;;;11.31;100.00
61524;BME280;47393;38.758;-9.164;2022-11-02T00:17:18;101322.94;;;11.30;100.00
61524;BME280;47393;38.758;-9.164;2022-11-02T00:19:52;101324.53;;;11.20;100.00
61524;BME280;47393;38.758;-9.164;2022-11-02T00:24:52;101327.69;;;11.25;100.00
61524;BME280;47393;38.758;-9.164;2022-11-02T00:27:10;101322.94;;;11.04;100.00
61524;BME280;47393;38.758;-9.164;2022-11-02T00:29:39;101324.94;;;11.01;100.00
61524;BME280;47393;38.758;-9.164;2022-11-02T00:31:49;101319.13;;;10.83;100.00
61524;BME280;47393;38.758;-9.164;2022-11-02T00:36:40;101311.53;;;10.65;100.00
61524;BME280;47393;38.758;-9.164;2022-11-02T00:38:46;101309.50;;;10.43;100.00
61524;BME280;47393;38.758;-9.164;2022-11-02T00:40:47;101312.53;;;10.50;100.00
61524;BME280;47393;38.758;-9.164;2022-11-02T00:42:48;101316.31;;;10.46;100.00
61524;BME280;47393;38.758;-9.164;2022-11-02T00:44:49;101316.94;;;10.36;100.00
61524;BME280;47393;38.758;-9.164;2022-11-02T00:47:04;101315.78;;;10.41;100.00
61524;BME280;47393;38.758;-9.164;2022-11-02T00:49:05;101307.03;;;10.40;100.00
61524;BME280;47393;38.758;-9.164;2022-11-02T00:51:08;101306.34;;;10.51;100.00
61524;BME280;47393;38.758;-9.164;2022-11-02T00:53:09;101309.00;;;10.64;100.00
61524;BME280;47393;38.758;-9.164;2022-11-02T00:55:15;101306.13;;;10.54;100.00
61524;BME280;47393;38.758;-9.164;2022-11-02T00:57:42;101311.66;;;10.36;100.00
61524;BME280;47393;38.758;-9.164;2022-11-02T00:59:50;101301.16;;;10.36;100.00
61524;BME280;47393;38.758;-9.164;2022-11-02T01:01:51;101298.53;;;10.36;100.00
61524;BME280;47393;38.758;-9.164;2022-11-02T01:03:54;101299.69;;;10.45;100.00
61524;BME280;47393;38.758;-9.164;2022-11-02T01:05:56;101294.34;;;10.47;100.00
61524;BME280;47393;38.758;-9.164;2022-11-02T01:08:05;101298.78;;;10.59;100.00
61524;BME280;47393;38.758;-9.164;2022-11-02T01:10:07;101223.75;;;10.13;100.00
61524;BME280;47393;38.758;-9.164;2022-11-02T01:12:08;101292.34;;;10.50;100.00
61524;BME280;47393;38.758;-9.164;2022-11-02T01:14:09;101291.94;;;10.56;100.00
61524;BME280;47393;38.758;-9.164;2022-11-02T01:16:22;101293.75;;;10.69;100.00
61524;BME280;47393;38.758;-9.164;2022-11-02T01:18:27;101277.97;;;10.69;100.00
61524;BME280;47393;38.758;-9.164;2022-11-02T01:20:31;101277.22;;;10.80;100.00
61524;BME280;47393;38.758;-9.164;2022-11-02T01:22:32;101272.63;;;10.96;100.00
61524;BME280;47393;38.758;-9.164;2022-11-02T01:24:33;101267.13;;;11.12;100.00
61524;BME280;47393;38.758;-9.164;2022-11-02T01:27:03;101265.09;;;11.29;100.00
61524;BME280;47393;38.758;-9.164;2022-11-02T01:29:24;101270.59;;;11.13;100.00
61524;BME280;47393;38.758;-9.164;2022-11-02T01:38:19;101255.03;;;11.10;100.00
61524;BME280;47393;38.758;-9.164;2022-11-02T01:40:55;101254.56;;;11.29;100.00
61524;BME280;47393;38.758;-9.164;2022-11-02T01:45:39;101252.47;;;11.21;100.00
61524;BME280;47393;38.758;-9.164;2022-11-02T01:48:04;101243.94;;;11.04;100.00
61524;BME280;47393;38.758;-9.164;2022-11-02T01:50:16;101240.28;;;10.81;100.00
61524;BME280;47393;38.758;-9.164;2022-11-02T01:52:25;101236.69;;;10.56;100.00
61524;BME280;47393;38.758;-9.164;2022-11-02T01:54:29;101237.28;;;10.34;100.00
61524;BME280;47393;38.758;-9.164;2022-11-02T01:56:31;101226.47;;;10.12;100.00
61524;BME280;47393;38.758;-9.164;2022-11-02T01:58:33;101223.72;;;10.00;100.00
61524;BME280;47393;38.758;-9.164;2022-11-02T02:00:33;101222.00;;;9.99;100.00
61524;BME280;47393;38.758;-9.164;2022-11-02T02:02:35;101223.28;;;10.07;100.00
61524;BME280;47393;38.758;-9.164;2022-11-02T02:04:41;101221.75;;;10.17;100.00
61524;BME280;47393;38.758;-9.164;2022-11-02T02:06:45;101222.41;;;10.20;100.00
61524;BME280;47393;38.758;-9.164;2022-11-02T02:08:47;101222.16;;;10.38;100.00
61524;BME280;47393;38.758;-9.164;2022-11-02T02:10:50;101224.88;;;10.36;100.00
61524;BME280;47393;38.758;-9.164;2022-11-02T02:12:50;101222.81;;;10.27;100.00
61524;BME280;47393;38.758;-9.164;2022-11-02T02:14:56;101238.47;;;10.16;100.00
61524;BME280;47393;38.758;-9.164;2022-11-02T02:31:32;101225.97;;;9.92;100.00
61524;BME280;47393;38.758;-9.164;2022-11-02T02:33:38;101220.09;;;9.89;100.00
61524;BME280;47393;38.758;-9.164;2022-11-02T02:36:33;101216.91;;;9.83;100.00
61524;BME280;47393;38.758;-9.164;2022-11-02T02:38:52;101216.59;;;9.61;100.00
61524;BME280;47393;38.758;-9.164;2022-11-02T02:40:57;101214.13;;;9.45;100.00
61524;BME280;47393;38.758;-9.164;2022-11-02T02:44:07;101213.75;;;9.37;100.00
61524;BME280;47393;38.758;-9.164;2022-11-02T02:46:01;101208.59;;;9.35;100.00
61524;BME280;47393;38.758;-9.164;2022-11-02T02:48:12;101206.25;;;9.30;100.00
61524;BME280;47393;38.758;-9.164;2022-11-02T02:50:25;101207.56;;;9.38;100.00
61524;BME280;47393;38.758;-9.164;2022-11-02T02:52:31;101204.63;;;9.42;100.00
61524;BME280;47393;38.758;-9.164;2022-11-02T02:54:40;101205.91;;;9.64;100.00
61524;BME280;47393;38.758;-9.164;2022-11-02T02:56:56;101200.84;;;9.61;100.00
61524;BME280;47393;38.758;-9.164;2022-11-02T02:59:05;101207.47;;;9.39;100.00
61524;BME280;47393;38.758;-9.164;2022-11-02T03:01:12;101201.38;;;9.39;100.00
61524;BME280;47393;38.758;-9.164;2022-11-02T03:03:16;101201.34;;;9.80;100.00
61524;BME280;47393;38.758;-9.164;2022-11-02T03:05:23;101199.69;;;9.92;100.00
61524;BME280;47393;38.758;-9.164;2022-11-02T03:07:31;101204.69;;;10.10;100.00
61524;BME280;47393;38.758;-9.164;2022-11-02T03:09:49;101203.34;;;10.17;100.00
61524;BME280;47393;38.758;-9.164;2022-11-02T03:19:49;101179.09;;;11.03;100.00
61524;BME280;47393;38.758;-9.164;2022-11-02T03:22:34;101182.38;;;10.94;100.00
61524;BME280;47393;38.758;-9.164;2022-11-02T03:25:07;101184.56;;;11.00;100.00
61524;BME280;47393;38.758;-9.164;2022-11-02T03:30:00;101192.41;;;10.76;100.00
61524;BME280;47393;38.758;-9.164;2022-11-02T03:32:24;101185.97;;;10.54;100.00
61524;BME280;47393;38.758;-9.164;2022-11-02T03:34:38;101187.22;;;10.36;100.00
61524;BME280;47393;38.758;-9.164;2022-11-02T03:37:01;101185.75;;;10.45;100.00
61524;BME280;47393;38.758;-9.164;2022-11-02T03:39:12;101186.84;;;10.15;100.00
61524;BME280;47393;38.758;-9.164;2022-11-02T03:41:25;101175.34;;;10.03;100.00
61524;BME280;47393;38.758;-9.164;2022-11-02T03:43:28;101186.00;;;9.87;100.00
61524;BME280;47393;38.758;-9.164;2022-11-02T03:45:41;101176.16;;;9.63;100.00
61524;BME280;47393;38.758;-9.164;2022-11-02T03:47:48;101170.19;;;9.47;100.00
61524;BME280;47393;38.758;-9.164;2022-11-02T03:49:57;101174.22;;;9.52;100.00
61524;BME280;47393;38.758;-9.164;2022-11-02T03:52:30;101177.97;;;9.63;100.00
61524;BME280;47393;38.758;-9.164;2022-11-02T03:55:18;101175.34;;;9.48;100.00
61524;BME280;47393;38.758;-9.164;2022-11-02T03:57:51;101170.41;;;9.44;100.00
61524;BME280;47393;38.758;-9.164;2022-11-02T04:02:58;101178.81;;;9.22;100.00
61524;BME280;47393;38.758;-9.164;2022-11-02T04:05:08;101179.81;;;9.33;100.00
61524;BME280;47393;38.758;-9.164;2022-11-02T04:07:31;101176.09;;;9.50;100.00
61524;BME280;47393;38.758;-9.164;2022-11-02T04:09:36;101173.44;;;9.38;100.00
61524;BME280;47393;38.758;-9.164;2022-11-02T04:11:59;101159.66;;;9.20;100.00
61524;BME280;47393;38.758;-9.164;2022-11-02T04:14:47;101177.72;;;9.53;100.00
61524;BME280;47393;38.758;-9.164;2022-11-02T04:16:54;101180.19;;;9.69;100.00
61524;BME280;47393;38.758;-9.164;2022-11-02T04:19:02;101157.72;;;9.50;100.00
61524;BME280;47393;38.758;-9.164;2022-11-02T04:21:25;101168.63;;;9.72;100.00
61524;BME280;47393;38.758;-9.164;2022-11-02T04:26:49;101174.00;;;9.70;100.00
61524;BME280;47393;38.758;-9.164;2022-11-02T04:29:24;101175.59;;;9.58;100.00
61524;BME280;47393;38.758;-9.164;2022-11-02T04:31:26;101176.66;;;9.56;100.00
61524;BME280;47393;38.758;-9.164;2022-11-02T04:33:27;101173.53;;;9.63;100.00
61524;BME280;47393;38.758;-9.164;2022-11-02T04:35:49;101186.88;;;9.60;100.00
61524;BME280;47393;38.758;-9.164;2022-11-02T04:38:03;101189.50;;;9.60;100.00
61524;BME280;47393;38.758;-9.164;2022-11-02T04:40:34;101186.88;;;9.60;100.00
61524;BME280;47393;38.758;-9.164;2022-11-02T04:42:37;101188.53;;;9.61;100.00
61524;BME280;47393;38.758;-9.164;2022-11-02T04:44:38;101186.06;;;9.73;100.00
61524;BME280;47393;38.758;-9.164;2022-11-02T04:46:52;101189.84;;;9.96;100.00
61524;BME280;47393;38.758;-9.164;2022-11-02T04:49:14;101199.09;;;10.01;100.00
61524;BME280;47393;38.758;-9.164;2022-11-02T04:51:16;101198.97;;;9.90;100.00
61524;BME280;47393;38.758;-9.164;2022-11-02T04:53:19;101202.97;;;9.68;100.00
61524;BME280;47393;38.758;-9.164;2022-11-02T04:55:29;101200.25;;;9.43;100.00
61524;BME280;47393;38.758;-9.164;2022-11-02T04:57:47;101207.00;;;9.32;100.00
61524;BME280;47393;38.758;-9.164;2022-11-02T05:00:15;101219.28;;;9.32;100.00
61524;BME280;47393;38.758;-9.164;2022-11-02T05:09:19;101215.06;;;9.71;100.00
61524;BME280;47393;38.758;-9.164;2022-11-02T05:17:25;101218.81;;;9.94;100.00
61524;BME280;47393;38.758;-9.164;2022-11-02T05:19:50;101220.16;;;10.14;100.00
61524;BME280;47393;38.758;-9.164;2022-11-02T05:22:17;101222.38;;;10.48;100.00
61524;BME280;47393;38.758;-9.164;2022-11-02T05:24:27;101225.50;;;10.40;100.00
61524;BME280;47393;38.758;-9.164;2022-11-02T05:26:39;101230.69;;;10.27;100.00
61524;BME280;47393;38.758;-9.164;2022-11-02T05:28:46;101223.34;;;10.19;100.00
61524;BME280;47393;38.758;-9.164;2022-11-02T05:30:49;101217.16;;;10.33;100.00
61524;BME280;47393;38.758;-9.164;2022-11-02T05:33:13;101218.38;;;10.42;100.00
61524;BME280;47393;38.758;-9.164;2022-11-02T05:35:15;101213.53;;;10.49;100.00
61524;BME280;47393;38.758;-9.164;2022-11-02T05:37:17;101213.03;;;10.69;100.00
61524;BME280;47393;38.758;-9.164;2022-11-02T05:39:18;101216.25;;;10.86;100.00
61524;BME280;47393;38.758;-9.164;2022-11-02T05:41:22;101212.09;;;10.83;100.00
61524;BME280;47393;38.758;-9.164;2022-11-02T05:43:32;101206.72;;;10.85;100.00
61524;BME280;47393;38.758;-9.164;2022-11-02T05:45:36;101206.91;;;10.95;100.00
61524;BME280;47393;38.758;-9.164;2022-11-02T05:47:36;101207.63;;;10.97;100.00
61524;BME280;47393;38.758;-9.164;2022-11-02T05:49:40;101206.16;;;10.80;100.00
61524;BME280;47393;38.758;-9.164;2022-11-02T05:51:50;101208.28;;;10.62;100.00
61524;BME280;47393;38.758;-9.164;2022-11-02T05:53:50;101206.28;;;10.52;100.00
61524;BME280;47393;38.758;-9.164;2022-11-02T05:55:53;101219.63;;;10.49;100.00
61524;BME280;47393;38.758;-9.164;2022-11-02T05:58:00;101215.97;;;10.52;100.00
61524;BME280;47393;38.758;-9.164;2022-11-02T06:03:07;101218.06;;;10.72;100.00
61524;BME280;47393;38.758;-9.164;2022-11-02T06:05:55;101223.13;;;10.76;100.00
61524;BME280;47393;38.758;-9.164;2022-11-02T06:08:11;101228.50;;;10.74;100.00
61524;BME280;47393;38.758;-9.164;2022-11-02T06:12:58;101217.03;;;10.62;100.00
61524;BME280;47393;38.758;-9.164;2022-11-02T06:15:51;101226.88;;;10.46;100.00
61524;BME280;47393;38.758;-9.164;2022-11-02T06:21:04;101221.34;;;10.50;100.00
61524;BME280;47393;38.758;-9.164;2022-11-02T06:29:15;101221.16;;;10.26;100.00
61524;BME280;47393;38.758;-9.164;2022-11-02T06:40:58;101216.66;;;10.01;100.00
61524;BME280;47393;38.758;-9.164;2022-11-02T06:55:28;101234.22;;;10.00;100.00
61524;BME280;47393;38.758;-9.164;2022-11-02T06:58:12;101233.59;;;10.10;100.00
61524;BME280;47393;38.758;-9.164;2022-11-02T07:04:07;101227.69;;;9.93;100.00
61524;BME280;47393;38.758;-9.164;2022-11-02T07:06:28;101230.09;;;9.96;100.00
61524;BME280;47393;38.758;-9.164;2022-11-02T07:34:42;101251.66;;;13.90;87.14
61524;BME280;47393;38.758;-9.164;2022-11-02T07:47:04;101243.97;;;15.95;77.34
61524;BME280;47393;38.758;-9.164;2022-11-02T07:56:09;101265.97;;;19.28;62.64
61524;BME280;47393;38.758;-9.164;2022-11-02T07:59:01;101266.34;;;18.98;62.78
61524;BME280;47393;38.758;-9.164;2022-11-02T08:13:41;101280.56;;;20.09;52.40
61524;BME280;47393;38.758;-9.164;2022-11-02T08:15:42;101282.75;;;20.71;49.76
61524;BME280;47393;38.758;-9.164;2022-11-02T08:17:43;101289.69;;;21.14;49.47
61524;BME280;47393;38.758;-9.164;2022-11-02T08:19:43;101293.06;;;20.99;48.95
61524;BME280;47393;38.758;-9.164;2022-11-02T08:21:44;101295.88;;;21.06;47.32
61524;BME280;47393;38.758;-9.164;2022-11-02T08:23:44;101292.97;;;20.68;49.15
61524;BME280;47393;38.758;-9.164;2022-11-02T08:25:46;101281.75;;;20.48;50.39
61524;BME280;47393;38.758;-9.164;2022-11-02T08:27:47;101286.28;;;20.39;49.98
61524;BME280;47393;38.758;-9.164;2022-11-02T08:29:47;101281.41;;;20.18;50.58
61524;BME280;47393;38.758;-9.164;2022-11-02T08:31:48;101286.72;;;20.01;50.55
61524;BME280;47393;38.758;-9.164;2022-11-02T08:33:48;101287.69;;;19.84;51.55
61524;BME280;47393;38.758;-9.164;2022-11-02T08:35:49;101278.44;;;20.70;49.01
61524;BME280;47393;38.758;-9.164;2022-11-02T08:37:58;101289.38;;;21.56;46.70
61524;BME280;47393;38.758;-9.164;2022-11-02T08:39:59;101293.59;;;22.52;44.25
61524;BME280;47393;38.758;-9.164;2022-11-02T08:41:59;101289.13;;;22.21;44.20
61524;BME280;47393;38.758;-9.164;2022-11-02T08:44:02;101295.34;;;22.44;45.24
61524;BME280;47393;38.758;-9.164;2022-11-02T08:46:03;101298.91;;;22.60;44.25
61524;BME280;47393;38.758;-9.164;2022-11-02T08:48:04;101301.66;;;22.67;45.52
61524;BME280;47393;38.758;-9.164;2022-11-02T08:50:05;101305.34;;;23.33;43.08
61524;BME280;47393;38.758;-9.164;2022-11-02T08:52:06;101300.28;;;22.71;44.37
61524;BME280;47393;38.758;-9.164;2022-11-02T08:54:06;101299.94;;;22.36;43.98
61524;BME280;47393;38.758;-9.164;2022-11-02T08:56:07;101300.03;;;21.25;46.61
61524;BME280;47393;38.758;-9.164;2022-11-02T08:58:08;101299.63;;;23.22;43.02
61524;BME280;47393;38.758;-9.164;2022-11-02T09:00:09;101307.00;;;22.52;43.52
61524;BME280;47393;38.758;-9.164;2022-11-02T09:02:09;101313.53;;;22.34;44.02
61524;BME280;47393;38.758;-9.164;2022-11-02T09:04:10;101310.22;;;22.24;44.59
61524;BME280;47393;38.758;-9.164;2022-11-02T09:06:10;101313.09;;;22.98;43.51
61524;BME280;47393;38.758;-9.164;2022-11-02T09:08:20;101316.88;;;23.64;43.36
61524;BME280;47393;38.758;-9.164;2022-11-02T09:10:20;101330.22;;;23.42;43.09
61524;BME280;47393;38.758;-9.164;2022-11-02T09:12:21;101327.94;;;23.91;41.26
61524;BME280;47393;38.758;-9.164;2022-11-02T09:14:21;101328.00;;;23.01;42.75
61524;BME280;47393;38.758;-9.164;2022-11-02T09:16:22;101330.94;;;22.53;44.24
61524;BME280;47393;38.758;-9.164;2022-11-02T09:18:22;101330.88;;;20.88;47.58
61524;BME280;47393;38.758;-9.164;2022-11-02T09:20:23;101334.19;;;20.32;49.59
61524;BME280;47393;38.758;-9.164;2022-11-02T09:22:23;101323.41;;;19.91;50.92
61524;BME280;47393;38.758;-9.164;2022-11-02T09:24:24;101322.63;;;19.56;51.68
61524;BME280;47393;38.758;-9.164;2022-11-02T09:26:25;101318.75;;;18.90;53.83
61524;BME280;47393;38.758;-9.164;2022-11-02T09:28:26;101318.34;;;19.02;53.79
61524;BME280;47393;38.758;-9.164;2022-11-02T09:30:26;101306.97;;;19.69;52.12
61524;BME280;47393;38.758;-9.164;2022-11-02T09:32:27;101307.44;;;20.98;49.51
61524;BME280;47393;38.758;-9.164;2022-11-02T09:34:27;101306.72;;;21.60;46.66
61524;BME280;47393;38.758;-9.164;2022-11-02T09:36:28;101297.72;;;19.82;50.32
61524;BME280;47393;38.758;-9.164;2022-11-02T09:38:31;101303.31;;;19.70;52.14
61524;BME280;47393;38.758;-9.164;2022-11-02T09:40:50;101299.47;;;20.40;49.92
61524;BME280;47393;38.758;-9.164;2022-11-02T09:42:56;101292.25;;;22.09;46.78
61524;BME280;47393;38.758;-9.164;2022-11-02T09:45:00;101296.56;;;21.87;46.05
61524;BME280;47393;38.758;-9.164;2022-11-02T09:47:01;101302.97;;;21.38;47.58
61524;BME280;47393;38.758;-9.164;2022-11-02T09:49:03;101295.81;;;23.01;44.25
61524;BME280;47393;38.758;-9.164;2022-11-02T09:51:14;101308.06;;;22.66;44.53
61524;BME280;47393;38.758;-9.164;2022-11-02T09:53:20;101308.50;;;23.22;43.26
61524;BME280;47393;38.758;-9.164;2022-11-02T09:55:27;101303.63;;;23.62;41.63
61524;BME280;47393;38.758;-9.164;2022-11-02T09:57:30;101310.28;;;23.66;42.17
61524;BME280;47393;38.758;-9.164;2022-11-02T09:59:32;101310.88;;;24.63;41.09
61524;BME280;47393;38.758;-9.164;2022-11-02T10:03:42;101313.06;;;25.51;37.62
61524;BME280;47393;38.758;-9.164;2022-11-02T10:05:50;101313.50;;;26.44;36.45
61524;BME280;47393;38.758;-9.164;2022-11-02T10:10:13;101302.50;;;25.50;38.13
61524;BME280;47393;38.758;-9.164;2022-11-02T10:12:16;101305.63;;;25.12;38.24
61524;BME280;47393;38.758;-9.164;2022-11-02T10:14:30;101309.59;;;25.64;38.30
61524;BME280;47393;38.758;-9.164;2022-11-02T10:16:34;101299.22;;;25.61;36.83
61524;BME280;47393;38.758;-9.164;2022-11-02T10:18:35;101285.03;;;27.01;35.42
61524;BME280;47393;38.758;-9.164;2022-11-02T10:20:40;101296.75;;;25.18;37.85
61524;BME280;47393;38.758;-9.164;2022-11-02T10:22:43;101283.19;;;23.46;41.33
61524;BME280;47393;38.758;-9.164;2022-11-02T10:24:45;101278.44;;;23.27;42.20
61524;BME280;47393;38.758;-9.164;2022-11-02T10:26:45;101271.16;;;22.53;43.83
61524;BME280;47393;38.758;-9.164;2022-11-02T10:28:48;101262.94;;;22.31;44.17
61524;BME280;47393;38.758;-9.164;2022-11-02T10:30:51;101265.91;;;20.13;49.20
61524;BME280;47393;38.758;-9.164;2022-11-02T10:32:51;101260.34;;;20.64;48.64
61524;BME280;47393;38.758;-9.164;2022-11-02T10:34:53;101248.19;;;20.04;49.31
61524;BME280;47393;38.758;-9.164;2022-11-02T10:39:24;101236.09;;;21.30;47.50
61524;BME280;47393;38.758;-9.164;2022-11-02T10:43:36;101232.00;;;22.05;44.87
61524;BME280;47393;38.758;-9.164;2022-11-02T10:48:01;101227.78;;;23.39;42.02
61524;BME280;47393;38.758;-9.164;2022-11-02T10:52:03;101248.44;;;22.93;43.49
61524;BME280;47393;38.758;-9.164;2022-11-02T10:54:06;101237.50;;;22.65;43.44
61524;BME280;47393;38.758;-9.164;2022-11-02T10:56:23;101233.94;;;22.35;44.12
61524;BME280;47393;38.758;-9.164;2022-11-02T10:58:29;101231.59;;;22.32;44.08
61524;BME280;47393;38.758;-9.164;2022-11-02T11:00:35;101238.22;;;22.21;44.50
61524;BME280;47393;38.758;-9.164;2022-11-02T11:02:35;101242.38;;;22.46;43.97
61524;BME280;47393;38.758;-9.164;2022-11-02T11:04:36;101238.13;;;22.37;44.71
61524;BME280;47393;38.758;-9.164;2022-11-02T11:06:40;101230.19;;;21.51;45.82
61524;BME280;47393;38.758;-9.164;2022-11-02T11:08:42;101240.25;;;21.41;47.65
61524;BME280;47393;38.758;-9.164;2022-11-02T11:10:43;101229.56;;;21.33;47.51
61524;BME280;47393;38.758;-9.164;2022-11-02T11:12:44;101234.31;;;20.42;48.47
61524;BME280;47393;38.758;-9.164;2022-11-02T11:15:02;101229.16;;;20.07;50.39
61524;BME280;47393;38.758;-9.164;2022-11-02T11:17:12;101226.66;;;19.89;50.97
61524;BME280;47393;38.758;-9.164;2022-11-02T11:19:20;101239.16;;;19.88;50.87
61524;BME280;47393;38.758;-9.164;2022-11-02T11:21:22;101244.09;;;19.59;51.76
61524;BME280;47393;38.758;-9.164;2022-11-02T11:23:33;101227.84;;;19.95;51.20
61524;BME280;47393;38.758;-9.164;2022-11-02T11:25:34;101229.84;;;20.09;50.72
61524;BME280;47393;38.758;-9.164;2022-11-02T11:28:19;101220.00;;;19.93;51.42
61524;BME280;47393;38.758;-9.164;2022-11-02T11:29:58;101221.81;;;20.34;50.76
61524;BME280;47393;38.758;-9.164;2022-11-02T11:31:59;101221.59;;;20.77;50.10
61524;BME280;47393;38.758;-9.164;2022-11-02T11:34:01;101230.09;;;21.28;48.57
61524;BME280;47393;38.758;-9.164;2022-11-02T11:36:01;101229.38;;;21.97;46.85
61524;BME280;47393;38.758;-9.164;2022-11-02T11:38:03;101232.69;;;22.45;45.55
61524;BME280;47393;38.758;-9.164;2022-11-02T11:40:14;101232.16;;;22.27;45.21
61524;BME280;47393;38.758;-9.164;2022-11-02T11:42:17;101227.50;;;22.44;45.17
61524;BME280;47393;38.758;-9.164;2022-11-02T11:44:18;101201.06;;;21.48;46.96
61524;BME280;47393;38.758;-9.164;2022-11-02T11:46:20;101196.16;;;22.06;46.56
61524;BME280;47393;38.758;-9.164;2022-11-02T11:48:32;101203.19;;;23.05;44.36
61524;BME280;47393;38.758;-9.164;2022-11-02T11:50:33;101199.91;;;23.98;41.74
61524;BME280;47393;38.758;-9.164;2022-11-02T11:52:34;101178.41;;;23.03;43.69
61524;BME280;47393;38.758;-9.164;2022-11-02T11:54:35;101175.94;;;23.38;43.25
61524;BME280;47393;38.758;-9.164;2022-11-02T11:56:37;101178.41;;;24.26;41.85
61524;BME280;47393;38.758;-9.164;2022-11-02T11:58:40;101186.31;;;24.98;40.24
61524;BME280;47393;38.758;-9.164;2022-11-02T12:03:08;101189.88;;;26.00;38.29
61524;BME280;47393;38.758;-9.164;2022-11-02T12:05:16;101183.00;;;26.51;37.46
61524;BME280;47393;38.758;-9.164;2022-11-02T12:09:41;101172.88;;;25.11;40.04
61524;BME280;47393;38.758;-9.164;2022-11-02T12:12:01;101172.13;;;25.31;40.47
61524;BME280;47393;38.758;-9.164;2022-11-02T12:14:11;101172.81;;;24.56;42.00
61524;BME280;47393;38.758;-9.164;2022-11-02T12:16:29;101168.09;;;24.93;41.59
61524;BME280;47393;38.758;-9.164;2022-11-02T12:20:40;101167.69;;;26.12;39.38
61524;BME280;47393;38.758;-9.164;2022-11-02T12:22:54;101164.41;;;25.14;40.86
61524;BME280;47393;38.758;-9.164;2022-11-02T12:27:26;101162.25;;;25.38;40.62
61524;BME280;47393;38.758;-9.164;2022-11-02T12:30:04;101156.91;;;26.25;39.98
61524;BME280;47393;38.758;-9.164;2022-11-02T12:42:25;101131.41;;;24.85;41.10
61524;BME280;47393;38.758;-9.164;2022-11-02T12:51:07;101127.66;;;24.80;40.95
61524;BME280;47393;38.758;-9.164;2022-11-02T12:53:17;101126.75;;;24.31;41.79
61524;BME280;47393;38.758;-9.164;2022-11-02T12:55:22;101122.03;;;24.40;42.19
61524;BME280;47393;38.758;-9.164;2022-11-02T12:57:24;101122.81;;;25.17;41.14
61524;BME280;47393;38.758;-9.164;2022-11-02T12:59:27;101116.41;;;25.18;41.19
61524;BME280;47393;38.758;-9.164;2022-11-02T13:01:38;101122.03;;;24.68;42.31
61524;BME280;47393;38.758;-9.164;2022-11-02T13:03:56;101117.53;;;24.88;41.17
61524;BME280;47393;38.758;-9.164;2022-11-02T13:06:02;101108.34;;;23.99;43.46
61524;BME280;47393;38.758;-9.164;2022-11-02T13:10:15;101110.63;;;23.53;43.74
61524;BME280;47393;38.758;-9.164;2022-11-02T13:12:18;101109.88;;;23.15;44.14
61524;BME280;47393;38.758;-9.164;2022-11-02T13:14:20;101111.50;;;22.65;45.19
61524;BME280;47393;38.758;-9.164;2022-11-02T13:16:29;101108.19;;;22.33;46.58
61524;BME280;47393;38.758;-9.164;2022-11-02T13:18:38;101102.53;;;22.28;46.46
61524;BME280;47393;38.758;-9.164;2022-11-02T13:20:41;101106.72;;;21.46;48.22
61524;BME280;47393;38.758;-9.164;2022-11-02T13:22:45;101106.63;;;21.39;49.38
61524;BME280;47393;38.758;-9.164;2022-11-02T13:24:48;101098.66;;;21.31;49.57
61524;BME280;47393;38.758;-9.164;2022-11-02T13:26:50;101097.94;;;21.14;48.99
61524;BME280;47393;38.758;-9.164;2022-11-02T13:28:55;101099.00;;;21.28;49.46
61524;BME280;47393;38.758;-9.164;2022-11-02T13:30:57;101094.19;;;21.47;48.93
61524;BME280;47393;38.758;-9.164;2022-11-02T13:33:09;101099.78;;;21.37;49.04
61524;BME280;47393;38.758;-9.164;2022-11-02T13:35:27;101100.38;;;21.24;52.56
61524;BME280;47393;38.758;-9.164;2022-11-02T13:37:34;101081.44;;;20.63;55.60
61524;BME280;47393;38.758;-9.164;2022-11-02T13:39:38;101090.50;;;19.97;57.48
61524;BME280;47393;38.758;-9.164;2022-11-02T13:43:58;101087.47;;;19.34;58.52
61524;BME280;47393;38.758;-9.164;2022-11-02T13:50:13;101076.47;;;19.62;58.49
61524;BME280;47393;38.758;-9.164;2022-11-02T13:52:41;101069.09;;;20.14;56.49
61524;BME280;47393;38.758;-9.164;2022-11-02T13:55:43;101066.25;;;20.23;57.26
61524;BME280;47393;38.758;-9.164;2022-11-02T13:57:20;101054.28;;;19.95;58.18
61524;BME280;47393;38.758;-9.164;2022-11-02T13:59:28;101051.28;;;19.73;57.33
61524;BME280;47393;38.758;-9.164;2022-11-02T14:01:30;101050.22;;;20.23;58.34
61524;BME280;47393;38.758;-9.164;2022-11-02T14:03:41;101039.53;;;20.63;56.31
61524;BME280;47393;38.758;-9.164;2022-11-02T14:05:45;101044.56;;;21.21;52.75
61524;BME280;47393;38.758;-9.164;2022-11-02T14:07:47;101051.94;;;21.42;50.02
61524;BME280;47393;38.758;-9.164;2022-11-02T14:09:48;101043.78;;;21.35;52.94
61524;BME280;47393;38.758;-9.164;2022-11-02T14:11:52;101041.59;;;21.62;53.09
61524;BME280;47393;38.758;-9.164;2022-11-02T14:19:12;101038.84;;;21.01;56.02
61524;BME280;47393;38.758;-9.164;2022-11-02T14:22:13;101037.22;;;20.91;55.37
61524;BME280;47393;38.758;-9.164;2022-11-02T14:23:42;101026.63;;;20.75;56.47
61524;BME280;47393;38.758;-9.164;2022-11-02T14:25:50;101010.28;;;20.70;57.00
61524;BME280;47393;38.758;-9.164;2022-11-02T14:27:54;101006.94;;;20.36;58.16
61524;BME280;47393;38.758;-9.164;2022-11-02T14:29:55;101005.00;;;20.14;56.34
61524;BME280;47393;38.758;-9.164;2022-11-02T14:31:56;101003.06;;;19.91;59.03